Monday, July 23, 2018, 7:32 AM EDT
Back to Local

KGKJ, Port Meadville Airport

Location: Meadville, PA, United States Lat: 41.633
Local Time: 7:32 AM EDT (11:32 GMT) Lon: -80.217
Time Zone: US/Eastern Elev: 1400 ft

Show me the last for .
Show Decoded

2018-07-23 06:53 METAR KGKJ 231053Z AUTO VRB03KT 10SM CLR 19/19 A2992 RMK AO2 SLP125 T01890189 =
2018-07-23 05:53 METAR KGKJ 230953Z AUTO VRB04KT 10SM CLR 19/19 A2989 RMK AO2 SLP115 T01890189 =
2018-07-23 04:53 METAR KGKJ 230853Z AUTO 10003KT 10SM CLR 19/18 A2987 RMK AO2 SLP108 T01890183
                 56001 =
2018-07-23 03:53 METAR KGKJ 230753Z AUTO VRB04KT 10SM CLR 19/19 A2988 RMK AO2 SLP110 T01890189 =
2018-07-23 02:53 METAR KGKJ 230653Z AUTO VRB04KT 10SM CLR 19/19 A2987 RMK AO2 SLP109 T01890189 =
2018-07-23 01:53 METAR KGKJ 230553Z AUTO VRB03KT 10SM CLR 19/19 A2988 RMK AO2 SLP111 60000
                 T01940189 10206 20194 50000 =
2018-07-23 00:53 METAR KGKJ 230453Z AUTO VRB03KT 10SM FEW100 19/19 A2988 RMK AO2 SLP113 T01940189
                 402280150 =
2018-07-22 23:53 METAR KGKJ 230353Z AUTO VRB04KT 10SM SCT070 20/19 A2988 RMK AO2 SLP113 T02000189
                 =
2018-07-22 22:53 METAR KGKJ 230253Z AUTO 00000KT 10SM BKN065 20/19 A2988 RMK AO2 SLP110 60000
                 T02000194 51009 =
2018-07-22 21:53 METAR KGKJ 230153Z AUTO 09004KT 10SM FEW035 BKN045 21/19 A2987 RMK AO2 SLP109
                 T02060194 =
2018-07-22 20:53 METAR KGKJ 230053Z AUTO 09005KT 10SM BKN060 BKN075 20/19 A2986 RMK AO2 RAE06
                 SLP105 P0000 T02000194 =
2018-07-22 19:53 METAR KGKJ 222353Z AUTO 09005KT 10SM -RA SCT032 BKN039 OVC050 21/20 A2985 RMK
                 AO2 RAB32 SLP102 P0001 60001 T02060200 10228 20189 53010 =
2018-07-22 18:53 METAR KGKJ 222253Z AUTO 05005KT 10SM FEW025 SCT032 OVC049 22/19 A2984 RMK AO2
                 SLP096 T02220189 =
2018-07-22 17:53 METAR KGKJ 222153Z AUTO 04004KT 10SM CLR 22/19 A2982 RMK AO2 SLP091 T02220189 =
2018-07-22 16:53 METAR KGKJ 222053Z AUTO VRB03KT 10SM FEW023 SCT027 OVC034 22/18 A2982 RMK AO2
                 SLP090 T02220178 53003 =
2018-07-22 16:28 METAR KGKJ 222028Z AUTO 00000KT 10SM SCT027 OVC032 22/18 A2981 RMK AO2 T02220183
                 =
2018-07-22 15:53 METAR KGKJ 221953Z AUTO VRB04KT 10SM FEW017 OVC027 21/18 A2981 RMK AO2 SLP089
                 T02060178 =
2018-07-22 14:53 METAR KGKJ 221853Z AUTO VRB04KT 10SM OVC019 20/17 A2981 RMK AO2 SLP089 T02000172
                 =
2018-07-22 13:53 METAR KGKJ 221753Z AUTO 24005KT 10SM OVC015 19/17 A2981 RMK AO2 SLP088 60001
                 T01890167 10194 20156 51015 =
2018-07-22 13:11 METAR KGKJ 221711Z AUTO 22004KT 10SM SCT011 OVC017 19/17 A2980 RMK AO2 T01890172
                 =
2018-07-22 12:53 METAR KGKJ 221653Z AUTO VRB03KT 10SM BKN011 OVC018 19/17 A2980 RMK AO2 SLP086
                 T01890172 =
2018-07-22 11:53 METAR KGKJ 221553Z AUTO VRB03KT 10SM OVC012 18/16 A2979 RMK AO2 SLP082 T01780161
                 =
2018-07-22 11:33 METAR KGKJ 221533Z AUTO 20004KT 10SM OVC012 18/17 A2978 RMK AO2 T01780167 =
2018-07-22 10:53 METAR KGKJ 221453Z AUTO 23005KT 10SM SCT009 OVC016 17/16 A2976 RMK AO2 SLP072
                 60001 T01720161 55002 =
2018-07-22 10:16 METAR KGKJ 221416Z AUTO VRB04KT 10SM SCT007 OVC012 17/16 A2977 RMK AO2 T01670161
                 =
2018-07-22 09:53 METAR KGKJ 221353Z AUTO 20004KT 10SM BKN008 OVC014 17/17 A2976 RMK AO2 RAE1257
                 CIG 005V012 SLP072 P0000 T01670167 =
2018-07-22 09:18 METAR KGKJ 221318Z AUTO 00000KT 10SM FEW004 BKN008 OVC019 17/16 A2976 RMK AO2
                 RAE1257 CIG 006V013 P0000 T01670156 =
2018-07-22 09:11 METAR KGKJ 221311Z AUTO 00000KT 10SM SCT006 BKN012 OVC019 17/16 A2977 RMK AO2
                 RAE1257 P0000 T01670156 =
2018-07-22 08:59 METAR KGKJ 221259Z AUTO 00000KT 10SM SCT005 SCT011 OVC019 17/16 A2976 RMK AO2
                 RAE57 P0000 T01670161 =
2018-07-22 08:53 METAR KGKJ 221253Z AUTO 00000KT 10SM -RA BKN005 BKN011 OVC019 17/16 A2977 RMK
                 AO2 CIG 003V007 SLP072 P0001 T01670161 =
2018-07-22 08:18 METAR KGKJ 221218Z AUTO 03004KT 10SM -RA BKN005 BKN009 OVC020 16/16 A2976 RMK
                 AO2 P0001 T01560156 =
2018-07-22 07:53 METAR KGKJ 221153Z AUTO 04003KT 10SM -RA BKN003 OVC021 16/16 A2977 RMK AO2
                 SLP073 P0005 60017 70026 T01560156 10161 20150 53002 =

Support USWX by starting your Amazon purchase here.